Time;durP1;ratioP1;P1;durP2;ratioP2;P2;SDS_P1;SDS_P2;PMS_P1;PMS_P2;Temp;Humidity;BMP_temperature;BMP_pressure;BME280_temperature;BME280_humidity;BME280_pressure;Samples;Min_cycle;Max_cycle;Signal;HPM_P1;HPM_P2
2022/12/08 00:01:51;;;;;;;6.82;0.70;;;2.70;99.90;;;;;;5114939;28;20031;-62
2022/12/08 00:04:16;;;;;;;5.75;0.77;;;2.80;99.90;;;;;;5114973;28;20043;-62
2022/12/08 00:09:29;;;;;;;7.38;0.90;;;2.90;99.90;;;;;;5114752;28;20050;-62
2022/12/08 00:12:03;;;;;;;4.03;1.08;;;2.90;99.90;;;;;;5114666;28;20036;-62
2022/12/08 00:14:34;;;;;;;2.88;0.55;;;2.90;99.90;;;;;;5114305;28;20489;-62
2022/12/08 00:17:02;;;;;;;2.95;0.73;;;2.80;99.90;;;;;;5114647;28;20119;-62
2022/12/08 00:19:28;;;;;;;10.70;1.00;;;2.80;99.90;;;;;;5114345;28;20473;-62
2022/12/08 00:21:54;;;;;;;6.20;1.00;;;3.00;99.90;;;;;;5114303;28;20071;-62
2022/12/08 00:24:21;;;;;;;6.00;1.33;;;2.90;99.90;;;;;;5114389;28;20039;-63
2022/12/08 00:26:47;;;;;;;5.97;0.88;;;3.00;99.90;;;;;;5114035;28;20122;-62
2022/12/08 00:29:13;;;;;;;3.15;0.98;;;3.00;99.90;;;;;;5114482;28;20119;-62
2022/12/08 00:31:39;;;;;;;9.57;1.30;;;3.00;99.90;;;;;;5114215;28;20485;-62
2022/12/08 00:34:05;;;;;;;4.55;1.02;;;3.00;99.90;;;;;;5095518;28;20047;-62
2022/12/08 00:36:31;;;;;;;3.03;0.88;;;2.80;99.90;;;;;;5096035;28;20122;-62
2022/12/08 00:38:57;;;;;;;5.65;1.00;;;2.80;99.90;;;;;;5114198;28;20123;-62
2022/12/08 00:44:11;;;;;;;4.07;0.90;;;2.70;99.90;;;;;;5114199;28;20047;-62
2022/12/08 00:46:37;;;;;;;5.18;1.00;;;2.70;99.90;;;;;;5113985;28;20036;-62
2022/12/08 00:49:03;;;;;;;6.18;1.60;;;2.80;99.90;;;;;;5113765;28;20391;-62
2022/12/08 00:51:29;;;;;;;7.35;1.00;;;2.70;99.90;;;;;;5114151;28;20079;-62
2022/12/08 00:53:55;;;;;;;4.60;1.00;;;2.70;99.90;;;;;;5113553;28;20774;-62
2022/12/08 00:56:20;;;;;;;3.97;1.35;;;2.80;99.90;;;;;;5113878;28;20105;-62
2022/12/08 00:58:46;;;;;;;3.53;1.00;;;2.80;99.90;;;;;;5113680;28;20040;-62
2022/12/08 01:01:13;;;;;;;2.60;1.05;;;2.80;99.90;;;;;;5113576;28;20124;-63
2022/12/08 01:03:40;;;;;;;7.63;1.58;;;2.70;99.90;;;;;;5114023;28;20111;-62
2022/12/08 01:06:06;;;;;;;3.95;1.00;;;2.80;99.90;;;;;;5113799;28;20036;-62
2022/12/08 01:08:33;;;;;;;6.65;1.00;;;2.80;99.90;;;;;;5113672;28;20031;-62
2022/12/08 01:11:18;;;;;;;5.35;0.90;;;2.70;99.90;;;;;;5113321;28;20185;-62
2022/12/08 01:13:44;;;;;;;2.95;0.93;;;2.60;99.90;;;;;;5113249;28;20028;-62
2022/12/08 01:16:24;;;;;;;2.90;0.80;;;2.60;99.90;;;;;;5113219;28;20550;-62
2022/12/08 01:18:51;;;;;;;4.25;1.23;;;2.80;99.90;;;;;;5113511;28;20075;-61
2022/12/08 01:21:17;;;;;;;4.43;1.23;;;3.40;99.90;;;;;;5113468;28;20031;-62
2022/12/08 01:23:43;;;;;;;5.75;0.95;;;2.60;99.90;;;;;;5113210;28;20042;-62
2022/12/08 01:26:12;;;;;;;3.33;1.00;;;2.80;99.90;;;;;;5113363;28;20043;-62
2022/12/08 01:28:38;;;;;;;5.80;1.20;;;2.60;99.90;;;;;;5112914;28;20036;-62
2022/12/08 01:31:04;;;;;;;2.58;0.95;;;2.80;99.90;;;;;;5113156;28;20031;-62
2022/12/08 01:33:30;;;;;;;3.80;0.80;;;2.60;99.90;;;;;;5113317;28;20042;-62
2022/12/08 01:36:01;;;;;;;2.78;0.65;;;2.60;99.90;;;;;;5113523;28;20035;-62
2022/12/08 01:38:26;;;;;;;3.25;0.75;;;2.90;99.90;;;;;;5113096;28;20039;-62
2022/12/08 01:40:52;;;;;;;3.00;0.77;;;2.70;99.90;;;;;;5112632;28;20096;-61
2022/12/08 01:43:19;;;;;;;3.17;0.60;;;2.70;99.90;;;;;;5112829;28;20389;-62
2022/12/08 01:45:46;;;;;;;4.70;0.50;;;2.90;99.90;;;;;;5113166;28;20047;-62
2022/12/08 01:48:24;;;;;;;5.22;0.70;;;2.90;99.90;;;;;;5095102;28;20157;-62
2022/12/08 01:50:52;;;;;;;7.38;1.10;;;3.00;99.90;;;;;;5112854;28;20112;-62
2022/12/08 01:53:22;;;;;;;2.40;0.47;;;2.90;99.90;;;;;;5112657;28;20032;-62
2022/12/08 01:55:57;;;;;;;6.38;0.60;;;2.80;99.90;;;;;;5112628;28;20822;-62
2022/12/08 01:58:32;;;;;;;2.47;0.82;;;2.90;99.90;;;;;;5112780;28;20046;-62
2022/12/08 02:00:57;;;;;;;2.58;0.90;;;2.90;99.90;;;;;;5112891;28;20047;-62
2022/12/08 02:03:30;;;;;;;1.23;0.68;;;2.90;99.90;;;;;;5113225;28;20031;-62
2022/12/08 02:05:57;;;;;;;5.40;0.93;;;2.90;99.90;;;;;;5112729;28;20088;-62
2022/12/08 02:08:23;;;;;;;2.60;1.15;;;2.90;99.90;;;;;;5112901;28;20409;-62
2022/12/08 02:10:51;;;;;;;2.65;0.80;;;2.90;99.90;;;;;;5112937;28;20036;-62
2022/12/08 02:13:19;;;;;;;4.85;0.88;;;2.80;99.90;;;;;;5112664;28;20078;-62
2022/12/08 02:16:10;;;;;;;1.75;0.68;;;2.90;99.90;;;;;;5112752;28;20051;-62
2022/12/08 02:18:51;;;;;;;2.60;0.88;;;2.70;99.90;;;;;;5112535;28;20031;-62
2022/12/08 02:21:36;;;;;;;4.30;0.68;;;3.00;99.90;;;;;;5112727;28;20036;-62
2022/12/08 02:24:21;;;;;;;2.78;0.70;;;3.00;99.90;;;;;;5112753;28;20036;-62
2022/12/08 02:26:50;;;;;;;3.60;0.60;;;2.80;99.90;;;;;;5112699;28;20393;-61
2022/12/08 02:29:52;;;;;;;6.23;1.37;;;3.00;99.90;;;;;;5112341;28;20362;-62
2022/12/08 02:32:33;;;;;;;6.88;1.23;;;3.00;99.90;;;;;;5112553;28;20273;-62
2022/12/08 02:35:11;;;;;;;2.28;0.80;;;2.80;99.90;;;;;;5112686;28;20118;-62
2022/12/08 02:37:55;;;;;;;1.63;0.70;;;2.90;99.90;;;;;;5112788;28;20044;-63
2022/12/08 02:40:29;;;;;;;3.30;0.70;;;2.70;99.90;;;;;;5112899;28;20043;-62
2022/12/08 02:43:27;;;;;;;2.38;0.32;;;2.80;99.90;;;;;;5098344;28;20036;-62
2022/12/08 02:45:59;;;;;;;1.02;0.47;;;2.90;99.90;;;;;;5033181;28;20372;-62
2022/12/08 02:48:28;;;;;;;3.78;0.28;;;3.50;99.90;;;;;;5033158;28;20038;-62
2022/12/08 02:50:54;;;;;;;;;;;2.70;99.90;;;;;;5034058;28;20033;-62
2022/12/08 02:53:19;;;;;;;2.40;0.40;;;2.90;99.90;;;;;;5033399;28;20433;-62
2022/12/08 02:55:57;;;;;;;2.38;0.30;;;2.80;99.90;;;;;;5033224;28;20049;-63
2022/12/08 02:58:22;;;;;;;0.25;0.20;;;2.90;99.90;;;;;;5017138;28;20041;-62
2022/12/08 03:01:27;;;;;;;0.40;0.20;;;2.70;99.90;;;;;;5033105;28;20476;-62
2022/12/08 03:04:03;;;;;;;1.55;0.40;;;2.80;99.90;;;;;;5032950;28;20053;-63
2022/12/08 03:06:44;;;;;;;0.30;0.20;;;2.80;99.90;;;;;;5033058;28;20084;-62
2022/12/08 03:09:23;;;;;;;1.98;0.30;;;2.60;99.90;;;;;;5033004;28;20103;-62
2022/12/08 03:12:00;;;;;;;1.35;0.63;;;2.80;99.90;;;;;;5033187;28;20077;-62
2022/12/08 03:14:28;;;;;;;0.80;0.30;;;2.80;99.90;;;;;;5032798;28;20488;-62
2022/12/08 03:16:56;;;;;;;2.10;0.95;;;2.60;99.90;;;;;;5032751;28;20139;-62
2022/12/08 03:19:30;;;;;;;3.38;0.65;;;2.70;99.90;;;;;;5032880;28;20171;-62
2022/12/08 03:22:02;;;;;;;0.77;0.52;;;2.80;99.90;;;;;;5064261;28;20397;-62
2022/12/08 03:24:33;;;;;;;2.97;0.90;;;2.70;99.90;;;;;;5115474;28;20047;-61
2022/12/08 03:27:09;;;;;;;2.92;0.77;;;2.80;99.90;;;;;;5115741;28;20039;-61
2022/12/08 03:29:35;;;;;;;0.80;0.73;;;2.80;99.90;;;;;;5115277;28;20054;-62
2022/12/08 03:32:22;;;;;;;1.70;1.00;;;2.80;99.90;;;;;;5115405;28;20122;-62
2022/12/08 03:34:50;;;;;;;2.20;1.13;;;2.90;99.90;;;;;;5115241;28;20040;-62
2022/12/08 03:37:16;;;;;;;1.05;0.85;;;2.70;99.90;;;;;;5115330;28;20035;-61
2022/12/08 03:39:42;;;;;;;3.70;1.05;;;2.80;99.90;;;;;;5115381;28;20042;-62
2022/12/08 03:42:08;;;;;;;4.20;1.00;;;2.90;99.90;;;;;;5115127;28;20386;-62
2022/12/08 03:44:33;;;;;;;3.58;1.00;;;2.80;99.90;;;;;;5114871;28;20035;-62
2022/12/08 03:46:59;;;;;;;1.40;0.80;;;2.90;99.90;;;;;;5115149;28;20047;-61
2022/12/08 03:49:24;;;;;;;2.95;0.80;;;2.70;99.90;;;;;;5114932;28;20052;-62
2022/12/08 03:51:50;;;;;;;2.17;0.70;;;2.70;99.90;;;;;;5114632;28;20048;-62
2022/12/08 03:54:16;;;;;;;1.75;0.63;;;2.80;99.90;;;;;;5115112;28;20370;-62
2022/12/08 03:56:41;;;;;;;2.35;0.47;;;2.70;99.90;;;;;;5114854;28;20473;-62
2022/12/08 03:59:07;;;;;;;3.63;0.80;;;2.70;99.90;;;;;;5115160;28;20031;-62
2022/12/08 04:01:33;;;;;;;1.25;0.70;;;2.60;99.90;;;;;;5114844;28;20031;-62
2022/12/08 04:03:58;;;;;;;1.63;0.70;;;2.60;99.90;;;;;;5114771;28;20039;-62
2022/12/08 04:06:24;;;;;;;2.60;1.20;;;2.70;99.90;;;;;;5114920;28;20046;-62
2022/12/08 04:08:50;;;;;;;1.88;0.60;;;2.70;99.90;;;;;;5114655;28;20078;-62
2022/12/08 04:11:17;;;;;;;0.77;0.52;;;2.80;99.90;;;;;;5114569;28;20039;-63
2022/12/08 04:13:44;;;;;;;1.35;0.80;;;2.80;99.90;;;;;;5114752;28;20050;-62
2022/12/08 04:16:18;;;;;;;1.17;0.60;;;2.70;99.90;;;;;;5114823;28;20035;-62
2022/12/08 04:18:44;;;;;;;3.33;0.60;;;2.60;99.90;;;;;;5114439;28;20115;-62
2022/12/08 04:21:10;;;;;;;1.63;0.93;;;2.60;99.90;;;;;;5114608;28;20035;-62
2022/12/08 04:23:35;;;;;;;2.55;0.73;;;2.80;99.90;;;;;;5114633;28;20451;-62
2022/12/08 04:26:01;;;;;;;1.73;0.73;;;2.60;99.90;;;;;;5114354;28;20035;-62
2022/12/08 04:28:28;;;;;;;2.70;0.70;;;2.70;99.90;;;;;;5114403;28;20042;-62
2022/12/08 04:30:54;;;;;;;0.80;0.50;;;2.80;99.90;;;;;;5114330;28;20036;-62
2022/12/08 04:33:20;;;;;;;1.63;0.60;;;2.60;99.90;;;;;;5113857;28;20512;-62
2022/12/08 04:35:46;;;;;;;3.00;0.60;;;2.80;99.90;;;;;;5114267;28;20042;-62
2022/12/08 04:38:12;;;;;;;0.75;0.50;;;2.80;99.90;;;;;;5114252;28;20123;-62
2022/12/08 04:40:39;;;;;;;2.53;0.80;;;2.60;99.90;;;;;;5095826;28;20035;-62
2022/12/08 04:43:04;;;;;;;1.17;0.60;;;2.70;99.90;;;;;;5114036;28;20032;-62
2022/12/08 04:45:31;;;;;;;0.98;0.40;;;2.70;99.90;;;;;;5114342;28;20031;-62
2022/12/08 04:47:58;;;;;;;1.77;0.60;;;2.60;99.90;;;;;;5114310;28;20035;-62
2022/12/08 04:50:23;;;;;;;1.30;0.45;;;2.60;99.90;;;;;;5113838;28;20496;-61
2022/12/08 04:52:49;;;;;;;1.17;0.73;;;2.80;99.90;;;;;;5113763;28;20083;-62
2022/12/08 04:55:15;;;;;;;3.17;0.40;;;2.70;99.90;;;;;;5113731;28;20050;-62
2022/12/08 04:57:40;;;;;;;2.20;0.60;;;2.80;99.90;;;;;;5113800;28;20401;-62
2022/12/08 05:00:07;;;;;;;1.27;0.57;;;2.60;99.90;;;;;;5113845;28;20032;-62
2022/12/08 05:02:32;;;;;;;1.95;0.40;;;2.50;99.90;;;;;;5113796;28;20035;-62
2022/12/08 05:04:58;;;;;;;2.22;0.73;;;2.60;99.90;;;;;;5112845;28;20050;-62
2022/12/08 05:07:24;;;;;;;5.10;0.70;;;2.60;99.90;;;;;;5113454;28;20049;-62
2022/12/08 05:09:50;;;;;;;2.25;0.43;;;2.60;99.90;;;;;;5113560;28;20430;-62
2022/12/08 05:12:15;;;;;;;1.25;0.40;;;2.80;99.90;;;;;;5113624;28;20123;-62
2022/12/08 05:14:41;;;;;;;3.92;0.50;;;2.60;99.90;;;;;;5113462;28;20044;-62
2022/12/08 05:17:06;;;;;;;1.45;0.40;;;2.50;99.90;;;;;;5113498;28;20522;-62
2022/12/08 05:19:32;;;;;;;2.92;0.60;;;2.70;99.90;;;;;;5113533;28;20507;-62
2022/12/08 05:21:58;;;;;;;1.75;0.40;;;2.80;99.90;;;;;;5113308;28;20406;-62
2022/12/08 05:24:23;;;;;;;2.28;0.50;;;2.70;99.90;;;;;;5112894;28;20098;-62
2022/12/08 05:26:49;;;;;;;1.02;0.47;;;2.70;99.90;;;;;;5095028;28;20039;-62
2022/12/08 05:29:15;;;;;;;3.95;0.90;;;2.70;99.90;;;;;;5112934;28;20504;-62
2022/12/08 05:31:40;;;;;;;4.18;0.55;;;2.80;99.90;;;;;;5113312;28;20051;-62
2022/12/08 05:34:06;;;;;;;2.92;0.45;;;2.70;99.90;;;;;;5113281;28;20039;-61
2022/12/08 05:36:31;;;;;;;1.85;0.30;;;2.80;99.90;;;;;;5113197;28;20482;-62
2022/12/08 05:38:57;;;;;;;1.02;0.40;;;2.50;99.90;;;;;;5112753;28;20032;-62
2022/12/08 05:41:23;;;;;;;3.58;0.47;;;2.50;99.90;;;;;;5112736;28;20040;-62
2022/12/08 05:43:49;;;;;;;1.67;0.50;;;2.50;99.90;;;;;;5113122;28;20076;-62
2022/12/08 05:46:15;;;;;;;2.38;0.45;;;2.50;99.90;;;;;;5112868;28;20389;-62
2022/12/08 05:48:41;;;;;;;1.85;0.52;;;2.50;99.90;;;;;;5112772;28;20046;-62
2022/12/08 05:51:21;;;;;;;3.95;0.63;;;2.50;99.90;;;;;;5112805;28;20039;-61
2022/12/08 05:53:48;;;;;;;3.63;0.47;;;2.30;99.90;;;;;;5112963;28;20097;-62
2022/12/08 05:56:14;;;;;;;6.75;0.70;;;2.50;99.90;;;;;;5112745;28;20036;-62
2022/12/08 05:58:40;;;;;;;2.80;0.60;;;2.30;99.90;;;;;;5094406;28;20396;-62
2022/12/08 06:01:05;;;;;;;3.85;0.68;;;2.50;99.90;;;;;;5112646;28;20084;-62
2022/12/08 06:03:31;;;;;;;3.60;0.75;;;2.30;99.90;;;;;;5112882;28;20032;-62
2022/12/08 06:05:57;;;;;;;4.00;0.88;;;2.50;99.90;;;;;;5112101;28;20129;-61
2022/12/08 06:08:22;;;;;;;5.53;0.80;;;2.30;99.90;;;;;;5112639;28;20043;-62
2022/12/08 06:10:48;;;;;;;1.33;0.50;;;2.30;99.90;;;;;;5112506;28;20046;-62
2022/12/08 06:13:14;;;;;;;3.42;0.60;;;2.20;99.90;;;;;;5112590;28;20035;-62
2022/12/08 06:15:40;;;;;;;1.42;0.50;;;2.20;99.90;;;;;;5114577;28;20083;-61
2022/12/08 06:18:07;;;;;;;3.38;0.75;;;2.30;99.90;;;;;;5116744;28;20032;-61
2022/12/08 06:20:33;;;;;;;1.50;0.77;;;2.20;99.90;;;;;;5116394;28;20453;-62
2022/12/08 06:22:58;;;;;;;1.95;0.65;;;2.40;99.90;;;;;;5116773;28;20063;-61
2022/12/08 06:25:24;;;;;;;1.67;0.65;;;2.30;99.90;;;;;;5116725;28;20150;-62
2022/12/08 06:27:50;;;;;;;0.95;0.55;;;2.40;99.90;;;;;;5115196;28;20162;-62
2022/12/08 06:30:16;;;;;;;4.03;0.85;;;2.30;99.90;;;;;;5115724;28;20035;-62
2022/12/08 06:32:42;;;;;;;1.48;0.55;;;2.30;99.90;;;;;;5115290;28;20042;-62
2022/12/08 06:35:08;;;;;;;1.80;0.60;;;2.30;99.90;;;;;;5116264;28;20039;-62
2022/12/08 06:37:34;;;;;;;2.50;0.73;;;2.30;99.90;;;;;;5115882;28;20071;-62
2022/12/08 06:39:59;;;;;;;0.77;0.50;;;2.40;99.90;;;;;;5097425;28;20067;-62
2022/12/08 06:42:43;;;;;;;0.60;0.60;;;2.40;99.90;;;;;;5116181;28;20046;-62
2022/12/08 06:45:11;;;;;;;2.78;0.50;;;2.20;99.90;;;;;;5116351;28;20031;-62
2022/12/08 06:47:36;;;;;;;0.40;0.40;;;2.20;99.90;;;;;;5115984;28;20478;-62
2022/12/08 06:50:03;;;;;;;4.03;0.73;;;2.30;99.90;;;;;;5115638;28;20051;-62
2022/12/08 06:52:29;;;;;;;0.90;0.65;;;2.10;99.90;;;;;;5115894;28;20052;-62
2022/12/08 06:54:54;;;;;;;2.22;0.80;;;2.20;99.90;;;;;;5115682;28;20375;-62
2022/12/08 06:57:20;;;;;;;2.40;0.60;;;2.10;99.90;;;;;;5115792;28;20598;-62
2022/12/08 06:59:46;;;;;;;5.50;0.77;;;2.30;99.90;;;;;;5113235;28;20031;-62
2022/12/08 07:02:11;;;;;;;2.30;0.47;;;2.20;99.90;;;;;;5094730;28;20111;-63
2022/12/08 07:04:37;;;;;;;4.03;0.60;;;2.20;99.90;;;;;;5114665;28;20047;-62
2022/12/08 07:07:03;;;;;;;5.93;0.88;;;2.20;99.90;;;;;;5115915;28;20602;-63
2022/12/08 07:09:28;;;;;;;2.22;0.70;;;2.20;99.90;;;;;;5115692;28;20043;-62
2022/12/08 07:11:54;;;;;;;2.38;1.00;;;2.10;99.90;;;;;;5115347;28;20035;-63
2022/12/08 07:14:23;;;;;;;1.85;0.60;;;2.10;99.90;;;;;;5115274;28;20093;-62
2022/12/08 07:16:50;;;;;;;2.25;0.68;;;2.10;99.90;;;;;;5115461;28;20043;-63
2022/12/08 07:19:16;;;;;;;1.20;0.80;;;2.00;99.90;;;;;;5115693;28;20028;-62
2022/12/08 07:21:42;;;;;;;3.40;1.25;;;2.10;99.90;;;;;;5115442;28;20031;-62
2022/12/08 07:24:07;;;;;;;1.60;0.80;;;2.00;99.90;;;;;;5115084;28;20543;-62
2022/12/08 07:26:33;;;;;;;2.45;0.90;;;2.10;99.90;;;;;;5114285;28;20035;-62
2022/12/08 07:28:59;;;;;;;4.38;0.70;;;1.90;99.90;;;;;;5114888;28;20061;-62
2022/12/08 07:31:26;;;;;;;6.22;1.15;;;1.90;99.90;;;;;;5114837;28;20031;-62
2022/12/08 07:33:53;;;;;;;4.15;1.10;;;1.80;99.90;;;;;;5114719;28;20469;-63
2022/12/08 07:36:20;;;;;;;4.88;1.00;;;2.00;99.90;;;;;;5115034;28;20069;-62
2022/12/08 07:38:45;;;;;;;3.55;1.15;;;1.90;99.90;;;;;;5114900;28;20071;-62
2022/12/08 07:41:16;;;;;;;3.17;1.10;;;1.90;99.90;;;;;;5114853;28;20071;-63
2022/12/08 07:43:42;;;;;;;1.58;1.10;;;2.00;99.90;;;;;;5114740;28;20038;-63
2022/12/08 07:46:12;;;;;;;4.55;1.38;;;1.90;99.90;;;;;;5114786;28;20039;-62
2022/12/08 07:48:38;;;;;;;4.60;1.17;;;1.90;99.90;;;;;;5114632;28;20504;-62
2022/12/08 07:51:04;;;;;;;5.10;1.23;;;1.90;99.90;;;;;;5114489;28;20043;-62
2022/12/08 07:53:30;;;;;;;3.58;1.23;;;2.00;99.90;;;;;;5114655;28;20071;-63
2022/12/08 07:55:56;;;;;;;10.35;1.30;;;1.90;99.90;;;;;;5114760;28;20089;-62
2022/12/08 07:58:22;;;;;;;6.50;1.08;;;1.90;99.90;;;;;;5114612;28;20035;-62
2022/12/08 08:00:48;;;;;;;4.00;1.05;;;1.90;99.90;;;;;;5096366;28;20040;-62
2022/12/08 08:03:13;;;;;;;4.30;1.40;;;1.90;99.90;;;;;;5114674;28;20027;-62
2022/12/08 08:05:39;;;;;;;3.38;1.20;;;1.80;99.90;;;;;;5114544;28;20091;-62
2022/12/08 08:08:05;;;;;;;1.95;1.20;;;1.70;99.90;;;;;;5114306;28;20035;-63
2022/12/08 08:10:31;;;;;;;2.40;1.05;;;1.70;99.90;;;;;;5114086;28;20043;-62
2022/12/08 08:12:59;;;;;;;6.88;1.35;;;1.70;99.90;;;;;;5114139;28;20039;-62
2022/12/08 08:15:26;;;;;;;4.32;1.40;;;1.70;99.90;;;;;;5113962;28;20043;-63
2022/12/08 08:17:52;;;;;;;4.85;1.40;;;1.60;99.90;;;;;;5114423;28;20046;-63
2022/12/08 08:20:18;;;;;;;6.07;1.50;;;1.70;99.90;;;;;;5114260;28;20036;-62
2022/12/08 08:22:46;;;;;;;6.07;1.35;;;1.60;99.90;;;;;;5114240;28;20028;-63
2022/12/08 08:25:12;;;;;;;5.05;1.20;;;1.70;99.90;;;;;;5114220;28;20435;-63
2022/12/08 08:27:38;;;;;;;3.42;1.58;;;1.60;99.90;;;;;;5114107;28;20035;-62
2022/12/08 08:30:07;;;;;;;3.50;1.30;;;1.60;99.90;;;;;;5095950;28;20063;-63
2022/12/08 08:32:34;;;;;;;5.10;1.02;;;1.70;99.90;;;;;;5113982;28;20124;-63
2022/12/08 08:35:00;;;;;;;5.03;1.42;;;2.60;99.90;;;;;;5114121;28;20040;-62
2022/12/08 08:37:26;;;;;;;4.38;1.20;;;2.10;99.90;;;;;;5113709;28;20092;-63
2022/12/08 08:39:52;;;;;;;5.32;1.08;;;2.10;99.90;;;;;;5113741;28;20036;-62
2022/12/08 08:42:18;;;;;;;3.35;0.68;;;2.10;99.90;;;;;;5113743;28;20032;-63
2022/12/08 08:44:43;;;;;;;2.88;0.80;;;2.20;99.90;;;;;;5113793;28;20108;-63
2022/12/08 08:47:09;;;;;;;6.60;1.85;;;2.10;99.90;;;;;;5113935;28;20038;-62
2022/12/08 08:49:35;;;;;;;3.63;1.27;;;2.10;99.90;;;;;;5095080;28;20115;-63
2022/12/08 08:52:01;;;;;;;2.17;1.50;;;2.20;99.90;;;;;;5113688;28;20077;-62
2022/12/08 08:54:28;;;;;;;7.65;1.88;;;2.10;99.90;;;;;;5113314;28;20123;-63
2022/12/08 08:56:53;;;;;;;7.03;1.50;;;2.20;99.90;;;;;;5113318;28;20462;-63
2022/12/08 08:59:19;;;;;;;8.48;2.10;;;2.20;99.90;;;;;;5113642;28;20096;-63
2022/12/08 09:01:45;;;;;;;7.30;1.95;;;2.20;99.90;;;;;;5113258;28;20383;-63
2022/12/08 09:04:11;;;;;;;1.90;1.20;;;2.30;99.90;;;;;;5113253;28;20039;-63
2022/12/08 09:06:37;;;;;;;9.48;2.20;;;2.30;99.90;;;;;;5113053;28;20375;-62
2022/12/08 09:09:02;;;;;;;4.55;1.17;;;2.30;99.90;;;;;;5113239;28;20036;-63
2022/12/08 09:11:28;;;;;;;5.93;1.20;;;2.40;99.90;;;;;;5113121;28;20468;-62
2022/12/08 09:13:54;;;;;;;4.03;1.33;;;2.50;99.90;;;;;;5112903;28;20043;-63
2022/12/08 09:16:20;;;;;;;4.82;1.40;;;2.50;99.90;;;;;;5095106;28;20066;-62
2022/12/08 09:18:48;;;;;;;4.40;1.20;;;2.60;99.90;;;;;;5113167;28;20028;-62
2022/12/08 09:21:19;;;;;;;3.22;1.23;;;2.70;99.90;;;;;;5113083;28;20032;-62
2022/12/08 09:23:45;;;;;;;4.43;1.20;;;2.70;99.90;;;;;;5112847;28;20040;-63
2022/12/08 09:26:10;;;;;;;9.40;1.92;;;2.70;99.90;;;;;;5112986;28;20079;-62
2022/12/08 09:28:36;;;;;;;6.00;1.58;;;2.80;99.90;;;;;;5113116;28;20107;-63
2022/12/08 09:31:03;;;;;;;4.47;1.48;;;2.80;99.90;;;;;;5112952;28;20036;-62
2022/12/08 09:33:28;;;;;;;4.85;1.75;;;2.70;99.90;;;;;;5113030;28;20045;-62
2022/12/08 09:35:54;;;;;;;7.18;1.45;;;2.80;99.90;;;;;;5112964;28;20036;-63
2022/12/08 09:38:20;;;;;;;3.53;1.30;;;2.70;99.90;;;;;;5112730;28;20146;-62
2022/12/08 09:40:50;;;;;;;5.85;1.60;;;2.90;99.90;;;;;;5112872;28;20397;-62
2022/12/08 09:43:41;;;;;;;5.28;1.48;;;2.90;99.90;;;;;;5112888;28;20442;-62
2022/12/08 09:46:07;;;;;;;;;;;2.90;99.90;;;;;;5113141;28;20067;-62
2022/12/08 09:48:38;;;;;;;7.90;2.08;;;3.00;99.90;;;;;;5112762;28;19915;-62
2022/12/08 09:51:04;;;;;;;3.88;1.45;;;2.90;99.90;;;;;;5112149;28;20060;-62
2022/12/08 09:54:19;;;;;;;6.18;1.50;;;3.10;99.90;;;;;;5112760;28;20500;-63
2022/12/08 09:56:46;;;;;;;2.75;1.23;;;3.00;99.90;;;;;;5069751;28;20094;-63
2022/12/08 09:59:29;;;;;;;7.05;1.60;;;3.00;99.90;;;;;;5069606;28;20052;-63
2022/12/08 10:01:54;;;;;;;4.47;1.65;;;3.20;99.90;;;;;;5069796;28;20499;-62
2022/12/08 10:04:25;;;;;;;4.63;2.05;;;3.20;99.90;;;;;;5069767;28;20089;-62
2022/12/08 10:07:14;;;;;;;8.50;1.40;;;3.20;99.90;;;;;;5069850;28;20102;-62
2022/12/08 10:10:10;;;;;;;3.17;1.45;;;3.20;99.90;;;;;;5069837;28;20494;-62
2022/12/08 10:12:47;;;;;;;4.80;1.45;;;3.10;99.90;;;;;;5069805;28;20041;-62
2022/12/08 10:15:32;;;;;;;2.72;1.27;;;3.20;99.90;;;;;;5069607;28;20151;-62
2022/12/08 10:18:02;;;;;;;2.95;1.20;;;3.10;99.90;;;;;;5069843;28;20079;-62
2022/12/08 10:20:37;;;;;;;4.82;1.20;;;3.20;99.90;;;;;;5069642;28;20036;-62
2022/12/08 10:23:08;;;;;;;6.03;2.05;;;3.10;99.90;;;;;;5069780;28;20037;-62
2022/12/08 10:25:40;;;;;;;4.10;1.05;;;3.20;99.90;;;;;;5069650;28;20040;-62
2022/12/08 10:28:07;;;;;;;7.53;1.85;;;3.00;99.90;;;;;;5069576;28;20052;-62
2022/12/08 10:30:32;;;;;;;5.22;1.13;;;3.10;99.90;;;;;;5068699;28;20045;-62
2022/12/08 10:32:58;;;;;;;3.05;0.90;;;3.10;99.90;;;;;;5074140;28;20046;-62
2022/12/08 10:35:51;;;;;;;5.07;0.88;;;3.10;99.90;;;;;;5111816;28;20044;-63
2022/12/08 10:38:32;;;;;;;3.88;0.75;;;3.20;99.90;;;;;;5112324;28;20114;-62
2022/12/08 10:41:10;;;;;;;5.13;0.80;;;3.30;99.90;;;;;;5112100;28;20390;-62
2022/12/08 10:43:57;;;;;;;3.50;0.70;;;3.30;99.90;;;;;;5112473;28;20032;-63
2022/12/08 10:46:25;;;;;;;3.22;0.90;;;3.40;99.90;;;;;;5112258;28;20042;-62
2022/12/08 10:49:04;;;;;;;5.20;0.82;;;3.60;99.90;;;;;;5112251;28;20040;-62
2022/12/08 10:51:33;;;;;;;3.15;0.90;;;3.80;99.90;;;;;;5112097;28;20059;-63
2022/12/08 10:53:58;;;;;;;2.60;0.73;;;3.90;99.90;;;;;;5112222;28;20039;-62
2022/12/08 10:56:27;;;;;;;4.50;0.90;;;4.00;99.90;;;;;;5112388;28;20413;-62
2022/12/08 10:59:17;;;;;;;1.02;0.38;;;4.00;99.90;;;;;;5093861;28;20036;-62
2022/12/08 11:01:47;;;;;;;5.03;0.50;;;4.00;99.90;;;;;;5092921;28;20086;-62
2022/12/08 11:04:33;;;;;;;6.55;0.80;;;4.00;99.90;;;;;;5096545;28;20036;-63
2022/12/08 11:06:59;;;;;;;2.60;0.52;;;3.90;99.90;;;;;;5116023;28;20089;-62
2022/12/08 11:09:45;;;;;;;2.70;0.50;;;3.90;99.90;;;;;;5116144;28;20039;-62
2022/12/08 11:12:16;;;;;;;2.10;0.60;;;4.00;99.90;;;;;;5115766;28;20039;-62
2022/12/08 11:14:42;;;;;;;4.90;0.60;;;4.00;99.90;;;;;;5115824;28;20040;-62
2022/12/08 11:17:11;;;;;;;2.67;0.63;;;4.10;99.90;;;;;;5115684;28;20047;-62
2022/12/08 11:19:43;;;;;;;2.30;0.60;;;4.20;99.90;;;;;;5115552;28;20055;-62
2022/12/08 11:22:22;;;;;;;6.40;1.00;;;4.20;99.90;;;;;;5115510;28;20036;-63
2022/12/08 11:25:17;;;;;;;;;;;4.40;99.90;;;;;;5115642;28;20473;-62
2022/12/08 11:27:48;;;;;;;3.88;1.13;;;4.60;99.90;;;;;;5032711;28;20383;-62
2022/12/08 11:30:29;;;;;;;3.38;0.98;;;4.70;99.90;;;;;;5032176;28;20041;-62
2022/12/08 11:33:12;;;;;;;2.95;0.70;;;4.80;99.90;;;;;;5031214;28;20555;-63
2022/12/08 11:35:41;;;;;;;4.07;0.70;;;4.90;99.90;;;;;;5032015;28;20073;-62
2022/12/08 11:38:16;;;;;;;2.63;0.70;;;5.20;99.90;;;;;;5032543;28;20080;-63
2022/12/08 11:40:43;;;;;;;7.57;0.88;;;5.40;99.90;;;;;;5032582;28;20052;-63
2022/12/08 11:43:11;;;;;;;2.95;0.50;;;5.50;99.90;;;;;;5032449;28;20048;-64
2022/12/08 11:45:39;;;;;;;3.73;1.63;;;5.60;99.90;;;;;;5032306;28;20140;-63
2022/12/08 11:48:25;;;;;;;4.45;1.95;;;5.50;99.90;;;;;;5032591;28;20049;-63
2022/12/08 11:50:58;;;;;;;2.47;1.05;;;5.30;99.90;;;;;;5031782;28;20080;-62
2022/12/08 11:53:29;;;;;;;3.05;0.90;;;5.10;99.90;;;;;;5032183;28;20563;-62
2022/12/08 11:55:59;;;;;;;2.30;1.25;;;5.20;99.90;;;;;;5031952;28;20145;-62
2022/12/08 11:58:41;;;;;;;2.28;0.50;;;5.10;99.90;;;;;;5032194;28;20045;-62
2022/12/08 12:01:20;;;;;;;1.80;0.40;;;5.00;99.90;;;;;;5031899;28;20549;-62
2022/12/08 12:04:06;;;;;;;2.40;0.55;;;5.00;99.90;;;;;;5061659;28;20494;-62
2022/12/08 12:07:07;;;;;;;1.98;0.40;;;4.90;99.90;;;;;;5012178;28;20420;-62
2022/12/08 12:09:36;;;;;;;;;;;4.80;99.90;;;;;;5012767;28;20073;-62
2022/12/08 12:12:30;;;;;;;1.75;0.38;;;4.80;99.90;;;;;;5012027;28;20410;-62
2022/12/08 12:15:15;;;;;;;1.40;0.50;;;4.80;99.90;;;;;;5009194;28;20054;-62
2022/12/08 12:18:11;;;;;;;2.40;0.40;;;4.80;99.90;;;;;;5012064;28;20204;-62
2022/12/08 12:20:41;;;;;;;2.28;0.40;;;4.80;99.90;;;;;;4953712;29;20058;-62
2022/12/08 12:23:36;;;;;;;1.85;0.30;;;4.80;99.90;;;;;;4953662;28;20102;-62
2022/12/08 12:26:05;;;;;;;2.22;0.30;;;4.80;99.90;;;;;;4936922;29;20191;-62
2022/12/08 12:28:39;;;;;;;;;;;4.80;99.90;;;;;;4953970;29;20122;-62
2022/12/08 12:31:11;;;;;;;2.20;0.30;;;4.80;99.90;;;;;;4953551;29;19925;-62
2022/12/08 12:33:37;;;;;;;1.42;0.35;;;4.80;99.90;;;;;;4953743;29;20145;-62
2022/12/08 12:36:06;;;;;;;2.22;0.52;;;4.70;99.90;;;;;;4953312;29;20074;-62
2022/12/08 12:41:46;;;;;;;3.28;0.70;;;4.70;99.90;;;;;;4953334;29;19922;-62
2022/12/08 12:44:11;;;;;;;3.45;0.35;;;4.70;99.90;;;;;;5010211;28;20092;-62
2022/12/08 12:46:40;;;;;;;7.53;0.60;;;4.70;99.90;;;;;;5031155;28;20049;-62
2022/12/08 12:49:39;;;;;;;2.40;0.45;;;4.60;99.90;;;;;;5031774;28;20037;-62
2022/12/08 12:52:17;;;;;;;1.65;0.45;;;4.70;99.90;;;;;;5031147;28;20053;-62
2022/12/08 12:54:50;;;;;;;6.53;0.45;;;4.60;99.90;;;;;;5031040;28;20037;-62
2022/12/08 12:57:19;;;;;;;3.97;0.47;;;4.70;99.90;;;;;;5069917;28;20109;-62
2022/12/08 12:59:46;;;;;;;3.90;0.65;;;4.70;99.90;;;;;;5113994;28;20039;-62
2022/12/08 13:02:21;;;;;;;1.75;0.30;;;4.70;99.90;;;;;;5113599;28;20031;-62
2022/12/08 13:05:08;;;;;;;1.58;0.50;;;4.60;99.90;;;;;;5113748;28;20043;-62
2022/12/08 13:07:42;;;;;;;4.20;0.40;;;4.60;99.90;;;;;;5113879;28;20052;-62
2022/12/08 13:10:19;;;;;;;3.63;0.50;;;4.60;99.90;;;;;;5113679;28;20041;-62
2022/12/08 13:12:59;;;;;;;2.95;0.40;;;4.60;99.90;;;;;;5113492;28;20047;-62
2022/12/08 13:15:33;;;;;;;2.05;0.45;;;4.60;99.90;;;;;;5113498;28;20043;-62
2022/12/08 13:17:59;;;;;;;2.83;0.50;;;4.60;99.90;;;;;;5113297;28;20044;-62
2022/12/08 13:20:25;;;;;;;4.90;0.50;;;4.60;99.90;;;;;;5113382;28;20046;-62
2022/12/08 13:23:11;;;;;;;1.83;0.65;;;4.70;99.90;;;;;;5113485;28;20039;-62